createdAt,value
2018-07-27T00:02:19.722Z,1.80
2018-07-27T00:04:47.987Z,2.00
2018-07-27T00:07:16.322Z,1.90
2018-07-27T00:09:45.350Z,1.67
2018-07-27T00:12:13.602Z,1.90
2018-07-27T00:14:42.002Z,2.05
2018-07-27T00:17:10.647Z,1.90
2018-07-27T00:19:38.941Z,1.57
2018-07-27T00:22:07.379Z,1.90
2018-07-27T00:24:35.727Z,1.90
2018-07-27T00:27:04.050Z,1.95
2018-07-27T00:29:32.381Z,1.70
2018-07-27T00:32:01.595Z,1.57
2018-07-27T00:34:29.867Z,1.90
2018-07-27T00:36:58.205Z,1.67
2018-07-27T00:39:26.820Z,1.90
2018-07-27T00:41:55.165Z,1.98
2018-07-27T00:44:23.447Z,2.20
2018-07-27T00:46:52.360Z,2.00
2018-07-27T00:49:20.848Z,2.20
2018-07-27T00:51:49.246Z,2.00
2018-07-27T00:54:17.583Z,2.20
2018-07-27T00:56:45.984Z,1.77
2018-07-27T00:59:14.470Z,1.92
2018-07-27T01:01:43.474Z,2.10
2018-07-27T01:04:11.776Z,2.10
2018-07-27T01:06:40.151Z,1.85
2018-07-27T01:09:11.699Z,1.70
2018-07-27T01:11:40.012Z,2.00
2018-07-27T01:14:08.827Z,1.90
2018-07-27T01:16:37.127Z,1.75
2018-07-27T01:19:05.803Z,1.67
2018-07-27T01:21:34.119Z,1.60
2018-07-27T01:24:02.428Z,1.77
2018-07-27T01:26:30.791Z,1.87
2018-07-27T01:28:59.622Z,1.85
2018-07-27T01:31:28.022Z,1.85
2018-07-27T01:33:56.321Z,2.00
2018-07-27T01:36:24.862Z,1.80
2018-07-27T01:38:53.223Z,2.00
2018-07-27T01:41:21.510Z,2.12
2018-07-27T01:43:50.260Z,1.80
2018-07-27T01:46:18.640Z,1.85
2018-07-27T01:48:46.976Z,2.00
2018-07-27T01:51:15.968Z,1.77
2018-07-27T01:53:44.302Z,2.10
2018-07-27T01:56:12.803Z,1.60
2018-07-27T01:58:41.271Z,1.95
2018-07-27T02:01:09.583Z,2.02
2018-07-27T02:03:37.961Z,1.90
2018-07-27T02:06:06.350Z,1.82
2018-07-27T02:08:36.166Z,2.00
2018-07-27T02:11:04.559Z,1.80
2018-07-27T02:13:32.848Z,2.00
2018-07-27T02:16:01.215Z,1.60
2018-07-27T02:18:29.888Z,1.72
2018-07-27T02:20:58.688Z,1.80
2018-07-27T02:23:27.004Z,2.10
2018-07-27T02:25:55.616Z,1.90
2018-07-27T02:28:23.899Z,1.80
2018-07-27T02:30:52.216Z,2.20
2018-07-27T02:33:21.072Z,1.90
2018-07-27T02:35:49.360Z,1.80
2018-07-27T02:38:17.704Z,2.30
2018-07-27T02:40:46.033Z,1.80
2018-07-27T02:43:14.522Z,2.02
2018-07-27T02:45:42.902Z,2.08
2018-07-27T02:48:11.453Z,2.00
2018-07-27T02:50:39.832Z,1.98
2018-07-27T02:53:08.247Z,1.80
2018-07-27T02:55:36.612Z,1.72
2018-07-27T02:58:04.605Z,2.12
2018-07-27T03:00:33.011Z,2.00
2018-07-27T03:03:03.461Z,2.22
2018-07-27T03:05:31.730Z,2.10
2018-07-27T03:08:01.365Z,1.87
2018-07-27T03:10:29.828Z,1.80
2018-07-27T03:12:58.114Z,1.95
2018-07-27T03:15:26.462Z,2.17
2018-07-27T03:17:54.868Z,2.20
2018-07-27T03:20:23.169Z,1.98
2018-07-27T03:22:51.462Z,2.10
2018-07-27T03:25:20.012Z,1.80
2018-07-27T03:27:48.362Z,2.10
2018-07-27T03:30:16.649Z,1.95
2018-07-27T03:32:45.551Z,2.15
2018-07-27T03:35:14.007Z,1.98
2018-07-27T03:37:42.360Z,2.05
2018-07-27T03:40:11.210Z,2.05
2018-07-27T03:42:39.483Z,2.00
2018-07-27T03:45:07.848Z,2.30
2018-07-27T03:47:36.737Z,2.10
2018-07-27T03:50:05.531Z,2.10
2018-07-27T03:52:33.814Z,2.25
2018-07-27T03:55:02.082Z,1.98
2018-07-27T03:57:30.378Z,1.92
2018-07-27T03:59:58.950Z,2.08
2018-07-27T04:02:27.227Z,2.27
2018-07-27T04:04:55.614Z,2.08
2018-07-27T04:07:26.369Z,1.80
2018-07-27T04:09:54.659Z,2.20
2018-07-27T04:12:24.240Z,2.37
2018-07-27T04:14:53.291Z,2.20
2018-07-27T04:17:21.645Z,2.10
2018-07-27T04:19:50.498Z,2.00
2018-07-27T04:22:19.220Z,2.10
2018-07-27T04:24:47.501Z,2.20
2018-07-27T04:27:16.225Z,2.22
2018-07-27T04:29:44.535Z,2.10
2018-07-27T04:32:12.933Z,2.22
2018-07-27T04:34:41.530Z,2.30
2018-07-27T04:37:10.067Z,2.20
2018-07-27T04:39:38.306Z,2.27
2018-07-27T04:42:06.748Z,2.00
2018-07-27T04:44:35.125Z,2.50
2018-07-27T04:47:03.457Z,2.05
2018-07-27T04:49:32.086Z,2.40
2018-07-27T04:52:00.447Z,2.27
2018-07-27T04:54:28.775Z,2.35
2018-07-27T04:56:57.325Z,2.42
2018-07-27T04:59:25.634Z,2.20
2018-07-27T05:01:53.962Z,2.50
2018-07-27T05:04:22.395Z,2.10
2018-07-27T05:06:50.659Z,2.17
2018-07-27T05:09:25.042Z,2.45
2018-07-27T05:11:55.831Z,2.30
2018-07-27T05:14:24.347Z,3.00
2018-07-27T05:16:52.699Z,3.00
2018-07-27T05:19:20.961Z,3.17
2018-07-27T05:21:49.318Z,2.77
2018-07-27T05:24:17.678Z,3.40
2018-07-27T05:26:46.009Z,3.42
2018-07-27T05:29:14.885Z,3.00
2018-07-27T05:31:43.238Z,3.75
2018-07-27T05:34:11.602Z,3.90
2018-07-27T05:36:40.796Z,3.75
2018-07-27T05:39:10.850Z,4.10
2018-07-27T05:41:39.192Z,3.33
2018-07-27T05:44:07.829Z,3.85
2018-07-27T05:46:36.249Z,4.42
2018-07-27T05:49:06.991Z,3.87
2018-07-27T05:51:35.311Z,3.70
2018-07-27T05:54:03.689Z,3.87
2018-07-27T05:56:32.116Z,3.90
2018-07-27T05:59:00.354Z,4.10
2018-07-27T06:01:28.670Z,3.55
2018-07-27T06:03:56.998Z,3.58
2018-07-27T06:06:25.800Z,3.22
2018-07-27T06:08:55.270Z,3.58
2018-07-27T06:11:23.755Z,3.17
2018-07-27T06:13:52.955Z,2.87
2018-07-27T06:16:21.321Z,3.20
2018-07-27T06:18:49.652Z,3.35
2018-07-27T06:21:17.944Z,3.10
2018-07-27T06:23:46.430Z,3.58
2018-07-27T06:26:14.779Z,3.02
2018-07-27T06:28:43.110Z,3.30
2018-07-27T06:31:12.310Z,3.00
2018-07-27T06:33:40.608Z,3.25
2018-07-27T06:36:09.105Z,3.17
2018-07-27T06:38:37.958Z,3.15
2018-07-27T06:41:06.409Z,3.10
2018-07-27T06:43:34.733Z,3.00
2018-07-27T06:46:03.436Z,2.80
2018-07-27T06:48:31.802Z,3.08
2018-07-27T06:51:00.249Z,3.10
2018-07-27T06:53:28.710Z,3.30
2018-07-27T06:55:57.121Z,3.00
2018-07-27T06:58:25.494Z,3.42
2018-07-27T07:00:53.878Z,3.30
2018-07-27T07:03:22.241Z,2.98
2018-07-27T07:05:50.621Z,3.00
2018-07-27T07:08:20.366Z,2.80
2018-07-27T07:10:48.711Z,2.95
2018-07-27T07:13:17.113Z,3.47
2018-07-27T07:15:46.006Z,3.20
2018-07-27T07:18:14.377Z,3.30
2018-07-27T07:20:42.644Z,3.02
2018-07-27T07:23:11.153Z,3.52
2018-07-27T07:25:39.581Z,3.72
2018-07-27T07:28:07.838Z,3.35
2018-07-27T07:30:37.016Z,3.50
2018-07-27T07:33:05.512Z,3.42
2018-07-27T07:35:33.847Z,3.25
2018-07-27T07:38:02.146Z,3.42
2018-07-27T07:40:30.594Z,3.52
2018-07-27T07:42:59.028Z,3.37
2018-07-27T07:45:27.462Z,3.22
2018-07-27T07:47:55.758Z,3.35
2018-07-27T07:50:25.088Z,3.47
2018-07-27T07:52:53.405Z,3.22
2018-07-27T07:55:21.798Z,3.12
2018-07-27T07:57:50.511Z,3.12
2018-07-27T08:00:19.028Z,3.05
2018-07-27T08:02:47.315Z,2.90
2018-07-27T08:05:15.789Z,2.95
2018-07-27T08:07:45.450Z,3.10
2018-07-27T08:10:13.707Z,3.20
2018-07-27T08:12:45.396Z,2.87
2018-07-27T08:15:13.677Z,3.10
2018-07-27T08:17:42.157Z,3.10
2018-07-27T08:20:10.535Z,3.70
2018-07-27T08:22:38.878Z,3.47
2018-07-27T08:25:07.918Z,3.10
2018-07-27T08:27:36.274Z,3.52
2018-07-27T08:30:04.888Z,3.25
2018-07-27T08:32:33.451Z,3.30
2018-07-27T08:35:01.702Z,3.85
2018-07-27T08:37:30.021Z,3.60
2018-07-27T08:39:58.688Z,3.27
2018-07-27T08:42:27.082Z,3.35
2018-07-27T08:44:55.362Z,3.47
2018-07-27T08:47:23.906Z,3.40
2018-07-27T08:49:52.260Z,3.20
2018-07-27T08:52:20.488Z,3.22
